createdAt,value
2019-03-11T00:00:49.544Z,81.40
2019-03-11T00:03:39.143Z,80.70
2019-03-11T00:06:27.495Z,80.40
2019-03-11T00:09:17.229Z,80.00
2019-03-11T00:12:05.002Z,80.90
2019-03-11T00:14:53.199Z,81.00
2019-03-11T00:17:41.270Z,80.60
2019-03-11T00:20:29.337Z,81.20
2019-03-11T00:23:17.729Z,81.80
2019-03-11T00:26:05.577Z,81.20
2019-03-11T00:28:55.224Z,81.60
2019-03-11T00:31:44.377Z,81.50
2019-03-11T00:34:32.404Z,81.70
2019-03-11T00:37:22.212Z,82.50
2019-03-11T00:40:10.740Z,82.10
2019-03-11T00:42:58.907Z,82.20
2019-03-11T00:45:47.041Z,83.00
2019-03-11T00:48:37.775Z,83.60
2019-03-11T00:51:26.130Z,83.00
2019-03-11T00:54:15.132Z,83.00
2019-03-11T00:57:02.943Z,81.80
2019-03-11T00:59:50.978Z,82.60
2019-03-11T01:02:39.108Z,81.80
2019-03-11T01:05:30.029Z,81.60
2019-03-11T01:08:18.351Z,81.10
2019-03-11T01:11:06.868Z,80.60
2019-03-11T01:13:54.781Z,79.90
2019-03-11T01:16:42.958Z,78.80
2019-03-11T01:19:30.835Z,78.50
2019-03-11T01:22:18.912Z,78.50
2019-03-11T01:25:07.703Z,78.10
2019-03-11T01:27:55.948Z,77.80
2019-03-11T01:30:45.949Z,76.70
2019-03-11T01:33:33.777Z,76.30
2019-03-11T01:36:25.102Z,76.40
2019-03-11T01:39:14.899Z,76.30
2019-03-11T01:42:04.394Z,75.30
2019-03-11T01:44:52.431Z,75.20
2019-03-11T01:47:42.675Z,75.70
2019-03-11T01:50:30.561Z,75.30
2019-03-11T01:53:18.490Z,75.80
2019-03-11T01:56:08.706Z,75.50
2019-03-11T01:58:57.031Z,76.10
2019-03-11T02:01:48.606Z,76.70
2019-03-11T02:04:36.693Z,77.20
2019-03-11T02:07:24.503Z,77.90
2019-03-11T02:10:13.503Z,78.50
2019-03-11T02:13:01.439Z,79.70
2019-03-11T02:15:52.122Z,80.50
2019-03-11T02:18:40.448Z,81.30
2019-03-11T02:21:28.331Z,82.20
2019-03-11T02:24:20.960Z,83.40
2019-03-11T02:27:09.189Z,83.90
2019-03-11T02:29:57.391Z,84.40
2019-03-11T02:32:45.305Z,85.80
2019-03-11T02:35:33.752Z,87.40
2019-03-11T02:38:21.567Z,88.30
2019-03-11T02:41:10.289Z,88.30
2019-03-11T02:43:58.684Z,88.50
2019-03-11T02:46:49.913Z,89.30
2019-03-11T02:49:37.790Z,89.70
2019-03-11T02:52:27.027Z,90.20
2019-03-11T02:55:16.477Z,90.10
2019-03-11T02:58:04.820Z,90.20
2019-03-11T03:01:01.578Z,90.20
2019-03-11T03:03:58.830Z,90.40
2019-03-11T03:06:46.913Z,90.50
2019-03-11T03:09:35.103Z,90.20
2019-03-11T03:12:23.026Z,89.90
2019-03-11T03:15:12.192Z,89.70
2019-03-11T03:18:00.342Z,89.40
2019-03-11T03:20:48.246Z,89.60
2019-03-11T03:23:36.051Z,88.20
2019-03-11T03:26:24.408Z,88.20
2019-03-11T03:29:13.864Z,87.90
2019-03-11T03:32:04.379Z,87.80
2019-03-11T03:34:52.182Z,86.40
2019-03-11T03:37:40.489Z,86.30
2019-03-11T03:40:33.670Z,86.20
2019-03-11T03:43:22.128Z,86.10
2019-03-11T03:46:18.527Z,86.60
2019-03-11T03:49:04.516Z,86.20
2019-03-11T03:51:52.301Z,87.20
2019-03-11T03:54:39.987Z,85.60
2019-03-11T03:57:28.404Z,84.80
2019-03-11T04:00:16.728Z,85.20
2019-03-11T04:03:04.718Z,85.10
2019-03-11T04:05:52.808Z,84.40
2019-03-11T04:08:40.883Z,84.10
2019-03-11T04:11:30.227Z,84.00
2019-03-11T04:14:21.474Z,83.40
2019-03-11T04:17:09.621Z,83.70
2019-03-11T04:19:57.534Z,82.70
2019-03-11T04:22:45.348Z,82.70
2019-03-11T04:25:33.356Z,82.70
2019-03-11T04:28:21.724Z,82.40
2019-03-11T04:31:09.970Z,82.00
2019-03-11T04:33:58.467Z,81.60
2019-03-11T04:36:46.774Z,81.70
2019-03-11T04:39:35.297Z,81.10
2019-03-11T04:42:23.785Z,81.70
2019-03-11T04:45:12.931Z,81.10
2019-03-11T04:48:00.895Z,81.10
2019-03-11T04:50:53.514Z,81.30
2019-03-11T04:53:42.804Z,81.30
2019-03-11T04:56:31.040Z,80.40
2019-03-11T04:59:19.174Z,80.40
2019-03-11T05:02:07.205Z,80.30
2019-03-11T05:04:57.487Z,80.30
2019-03-11T05:07:45.500Z,80.50
2019-03-11T05:10:36.689Z,80.60
2019-03-11T05:13:24.839Z,80.80
2019-03-11T05:16:12.971Z,80.80
2019-03-11T05:19:02.411Z,81.20
2019-03-11T05:21:50.885Z,80.20
2019-03-11T05:24:40.124Z,80.10
2019-03-11T05:27:29.221Z,80.20
2019-03-11T05:30:20.302Z,79.40
2019-03-11T05:33:08.855Z,79.80
2019-03-11T05:35:57.123Z,79.40
2019-03-11T05:38:45.115Z,78.90
2019-03-11T05:41:33.637Z,78.00
2019-03-11T05:44:24.122Z,76.50
2019-03-11T05:47:12.334Z,75.10
2019-03-11T05:50:03.488Z,73.50
2019-03-11T05:52:51.389Z,72.60
2019-03-11T05:55:40.142Z,71.60
2019-03-11T05:58:28.007Z,71.60
2019-03-11T06:01:15.824Z,70.20
2019-03-11T06:04:03.891Z,70.20
2019-03-11T06:06:54.013Z,69.70
2019-03-11T06:09:42.144Z,70.00
2019-03-11T06:12:30.054Z,69.10
2019-03-11T06:15:20.213Z,69.40
2019-03-11T06:18:08.352Z,69.20
2019-03-11T06:21:14.222Z,69.60
2019-03-11T06:24:02.007Z,70.10
2019-03-11T06:26:50.165Z,70.90
2019-03-11T06:29:38.571Z,71.10
2019-03-11T06:32:26.772Z,70.90
2019-03-11T06:35:14.911Z,71.30
2019-03-11T06:38:03.114Z,71.70
2019-03-11T06:40:50.700Z,70.70
2019-03-11T06:43:38.897Z,71.00
2019-03-11T06:46:27.039Z,71.30
2019-03-11T06:49:17.116Z,71.90
2019-03-11T06:52:05.066Z,71.60
2019-03-11T06:54:52.908Z,72.70
2019-03-11T06:57:41.667Z,73.10
2019-03-11T07:00:29.471Z,74.20
2019-03-11T07:03:17.223Z,75.40
2019-03-11T07:06:04.984Z,77.10
2019-03-11T07:08:54.068Z,78.80
2019-03-11T07:11:42.113Z,79.70
2019-03-11T07:14:31.586Z,80.80
2019-03-11T07:17:19.483Z,82.50
2019-03-11T07:20:09.025Z,83.90
2019-03-11T07:22:57.294Z,84.30
2019-03-11T07:25:44.866Z,85.70
2019-03-11T07:28:32.734Z,85.10
2019-03-11T07:31:20.663Z,86.10
2019-03-11T07:34:08.600Z,85.50
2019-03-11T07:36:56.190Z,83.70
2019-03-11T07:39:44.353Z,83.90
2019-03-11T07:42:32.079Z,84.40
2019-03-11T07:45:20.322Z,84.20
2019-03-11T07:48:08.817Z,84.40
2019-03-11T07:50:56.672Z,85.70
2019-03-11T07:53:44.551Z,86.10
2019-03-11T07:56:32.236Z,86.60
2019-03-11T07:59:20.709Z,86.50
2019-03-11T08:02:11.868Z,85.30
2019-03-11T08:05:02.928Z,84.50
2019-03-11T08:07:50.870Z,84.60
2019-03-11T08:10:38.896Z,82.50
2019-03-11T08:13:27.124Z,82.30
2019-03-11T08:16:15.532Z,81.80
2019-03-11T08:19:03.940Z,81.70
2019-03-11T08:21:52.339Z,81.60
2019-03-11T08:24:40.342Z,82.50
2019-03-11T08:27:31.210Z,80.30
2019-03-11T08:30:18.936Z,78.90
2019-03-11T08:33:06.483Z,80.00
2019-03-11T08:35:54.140Z,79.20
2019-03-11T08:38:42.062Z,80.00
2019-03-11T08:41:33.064Z,80.30
2019-03-11T08:44:22.080Z,84.80
2019-03-11T08:47:09.947Z,92.00
2019-03-11T08:49:57.697Z,97.40
2019-03-11T08:52:59.226Z,99.90
2019-03-11T08:55:47.084Z,99.90
2019-03-11T08:58:37.329Z,99.90
2019-03-11T09:01:28.668Z,99.90
2019-03-11T09:04:17.062Z,99.90
2019-03-11T09:07:05.174Z,99.90
2019-03-11T09:09:59.474Z,99.90
2019-03-11T09:12:47.435Z,99.90
2019-03-11T09:15:35.667Z,99.90
2019-03-11T09:18:26.395Z,99.90
2019-03-11T09:21:14.367Z,99.90
2019-03-11T09:24:02.757Z,99.90
2019-03-11T09:26:54.854Z,99.90
2019-03-11T09:29:47.727Z,99.90
2019-03-11T09:32:36.689Z,99.90
2019-03-11T09:35:30.876Z,99.90
2019-03-11T09:38:22.583Z,99.90
2019-03-11T09:41:23.559Z,99.90
2019-03-11T09:44:11.625Z,99.90
2019-03-11T09:46:59.594Z,99.90
2019-03-11T09:49:54.171Z,99.90
2019-03-11T09:52:42.205Z,99.90
2019-03-11T09:55:30.336Z,99.90
2019-03-11T09:58:18.417Z,99.90
2019-03-11T10:01:06.281Z,99.90
2019-03-11T10:03:57.318Z,99.90
2019-03-11T10:06:45.003Z,99.90
2019-03-11T10:09:32.962Z,99.90
2019-03-11T10:12:20.938Z,99.90
2019-03-11T10:15:10.897Z,99.90
2019-03-11T10:17:58.342Z,99.90
2019-03-11T10:20:46.050Z,99.90
2019-03-11T10:23:34.292Z,99.90
2019-03-11T10:26:22.004Z,99.90
2019-03-11T10:29:10.642Z,99.80
2019-03-11T10:31:58.529Z,99.40
2019-03-11T10:34:47.861Z,99.40
2019-03-11T10:37:36.088Z,98.70
2019-03-11T10:40:23.895Z,98.40
2019-03-11T10:43:11.847Z,98.60
2019-03-11T10:45:59.736Z,97.60
2019-03-11T10:48:47.898Z,97.60
2019-03-11T10:51:38.070Z,98.00
2019-03-11T10:54:25.602Z,97.30
2019-03-11T10:57:13.718Z,96.20
2019-03-11T11:00:01.556Z,97.10
2019-03-11T11:02:52.603Z,95.80
2019-03-11T11:05:40.705Z,95.20
2019-03-11T11:08:28.605Z,95.30
2019-03-11T11:11:16.609Z,95.10
2019-03-11T11:14:04.853Z,94.70
2019-03-11T11:16:52.976Z,94.70
2019-03-11T11:19:41.303Z,94.90
2019-03-11T11:22:29.031Z,94.70
2019-03-11T11:25:21.268Z,94.40
2019-03-11T11:28:09.330Z,94.30
2019-03-11T11:30:56.851Z,93.40
2019-03-11T11:33:44.858Z,94.00
2019-03-11T11:36:33.111Z,94.30
2019-03-11T11:39:21.657Z,92.60
2019-03-11T11:42:09.597Z,93.80
2019-03-11T11:44:57.652Z,93.50
2019-03-11T11:47:45.827Z,93.10
2019-03-11T11:50:36.745Z,93.50
2019-03-11T11:53:25.335Z,93.30
2019-03-11T11:56:13.440Z,93.60
2019-03-11T11:59:04.530Z,92.40
2019-03-11T12:02:03.873Z,92.20
2019-03-11T12:04:47.180Z,92.50
2019-03-11T12:07:35.447Z,92.30
2019-03-11T12:10:23.627Z,93.20
2019-03-11T12:13:11.677Z,92.80
2019-03-11T12:15:59.522Z,92.60
2019-03-11T12:18:47.833Z,93.00
2019-03-11T12:21:35.738Z,93.10
2019-03-11T12:24:23.938Z,94.20
2019-03-11T12:27:12.154Z,94.30
2019-03-11T12:29:59.736Z,94.70
2019-03-11T12:32:47.921Z,94.60
2019-03-11T12:35:42.084Z,95.70
2019-03-11T12:38:32.865Z,96.80
2019-03-11T12:41:20.762Z,97.50
2019-03-11T12:44:08.571Z,97.50
2019-03-11T12:46:56.397Z,98.10
2019-03-11T12:49:44.253Z,97.90
2019-03-11T12:52:32.347Z,97.80
2019-03-11T12:55:21.564Z,97.30
2019-03-11T12:58:09.954Z,96.50
2019-03-11T13:00:58.157Z,96.40
2019-03-11T13:03:48.469Z,96.10
2019-03-11T13:06:36.840Z,95.80
2019-03-11T13:09:24.682Z,95.20
2019-03-11T13:12:12.797Z,95.10
2019-03-11T13:15:00.493Z,95.20
2019-03-11T13:17:49.786Z,94.60
2019-03-11T13:20:37.920Z,94.00
2019-03-11T13:23:25.754Z,93.70
2019-03-11T13:26:13.799Z,93.60
2019-03-11T13:29:01.755Z,93.00
2019-03-11T13:31:50.109Z,93.20
2019-03-11T13:34:37.778Z,93.20
2019-03-11T13:37:25.914Z,93.10
2019-03-11T13:40:14.213Z,91.30
2019-03-11T13:43:02.187Z,90.80
2019-03-11T13:45:50.441Z,91.70
2019-03-11T13:48:41.783Z,90.60
2019-03-11T13:51:30.102Z,90.40
2019-03-11T13:54:19.257Z,90.20
2019-03-11T13:57:07.541Z,90.20
2019-03-11T13:59:58.047Z,90.30
2019-03-11T14:02:45.944Z,90.70
2019-03-11T14:05:34.043Z,91.10
2019-03-11T14:08:22.907Z,91.00
2019-03-11T14:11:10.640Z,90.90
2019-03-11T14:13:58.566Z,91.80
2019-03-11T14:16:46.679Z,91.30
2019-03-11T14:19:34.783Z,90.90
2019-03-11T14:22:23.080Z,91.60
2019-03-11T14:25:11.880Z,91.30
2019-03-11T14:28:02.400Z,91.20
2019-03-11T14:30:50.086Z,91.60
2019-03-11T14:33:37.698Z,91.70
2019-03-11T14:36:25.366Z,91.30
2019-03-11T14:39:13.022Z,91.40
2019-03-11T14:42:00.805Z,91.40
2019-03-11T14:44:48.384Z,91.00
2019-03-11T14:47:36.917Z,91.60
2019-03-11T14:50:24.357Z,91.80
2019-03-11T14:53:11.875Z,91.80
2019-03-11T14:55:59.764Z,91.40
2019-03-11T14:58:47.412Z,91.40
2019-03-11T15:01:35.105Z,91.50
2019-03-11T15:04:22.901Z,91.30
2019-03-11T15:07:11.023Z,91.10
2019-03-11T15:09:58.686Z,91.30
2019-03-11T15:12:46.825Z,91.80
2019-03-11T15:15:34.580Z,91.40
2019-03-11T15:18:22.194Z,91.80
2019-03-11T15:21:09.787Z,91.50
2019-03-11T15:23:57.602Z,91.00
2019-03-11T15:26:45.282Z,91.40
2019-03-11T15:29:33.492Z,91.60
2019-03-11T15:32:21.142Z,91.60
2019-03-11T15:35:09.651Z,91.30
2019-03-11T15:37:57.456Z,92.00
2019-03-11T15:40:45.523Z,91.10
2019-03-11T15:43:33.403Z,91.30
2019-03-11T15:46:21.279Z,91.60
2019-03-11T15:49:09.376Z,91.40
2019-03-11T15:51:56.897Z,91.40
2019-03-11T15:54:44.853Z,91.30
2019-03-11T15:57:38.867Z,91.50
2019-03-11T16:00:22.305Z,91.30
2019-03-11T16:03:10.489Z,91.70
2019-03-11T16:05:58.744Z,91.10
2019-03-11T16:08:46.369Z,90.90
2019-03-11T16:11:33.774Z,90.40
2019-03-11T16:14:21.488Z,90.70
2019-03-11T16:17:09.193Z,90.70
2019-03-11T16:19:56.939Z,91.30
2019-03-11T16:22:44.639Z,92.40
2019-03-11T16:25:32.393Z,92.90
2019-03-11T16:28:19.893Z,93.30
2019-03-11T16:31:08.100Z,93.50
2019-03-11T16:33:55.580Z,93.40
2019-03-11T16:36:43.127Z,93.20
2019-03-11T16:39:30.926Z,92.80
2019-03-11T16:42:18.603Z,92.40
2019-03-11T16:45:06.670Z,91.70
2019-03-11T16:47:54.837Z,91.90
2019-03-11T16:50:42.972Z,92.20
2019-03-11T16:53:31.305Z,92.50
2019-03-11T16:56:18.749Z,92.50
2019-03-11T16:59:06.562Z,92.80
2019-03-11T17:01:54.218Z,93.20
2019-03-11T17:04:41.909Z,93.20
2019-03-11T17:07:29.258Z,93.30
2019-03-11T17:10:17.582Z,93.60
2019-03-11T17:13:04.965Z,93.60
2019-03-11T17:15:52.929Z,93.90
2019-03-11T17:18:40.611Z,93.90
2019-03-11T17:21:28.257Z,93.80
2019-03-11T17:24:16.032Z,93.80
2019-03-11T17:27:03.487Z,93.80
2019-03-11T17:29:51.641Z,94.00
2019-03-11T17:32:39.418Z,93.90
2019-03-11T17:35:27.106Z,94.20
2019-03-11T17:38:15.109Z,94.10
2019-03-11T17:41:02.873Z,94.10
2019-03-11T17:43:50.586Z,93.90
2019-03-11T17:46:38.314Z,93.90
2019-03-11T17:49:26.173Z,94.00
2019-03-11T17:52:14.065Z,94.20
2019-03-11T17:55:01.731Z,94.40
2019-03-11T17:57:49.818Z,94.40
2019-03-11T18:00:39.245Z,94.60
2019-03-11T18:03:27.478Z,95.10
2019-03-11T18:06:15.090Z,95.30
2019-03-11T18:09:03.236Z,95.70
2019-03-11T18:11:50.969Z,97.00
2019-03-11T18:14:39.064Z,97.40
2019-03-11T18:17:26.758Z,97.60
2019-03-11T18:20:14.273Z,97.30
2019-03-11T18:23:01.941Z,97.30
2019-03-11T18:25:49.822Z,97.20
2019-03-11T18:28:37.739Z,97.10
2019-03-11T18:31:26.007Z,97.20
2019-03-11T18:34:13.782Z,97.40
2019-03-11T18:37:02.029Z,97.50
2019-03-11T18:39:49.995Z,97.40
2019-03-11T18:42:37.479Z,97.40
2019-03-11T18:45:24.974Z,97.40
2019-03-11T18:48:13.161Z,97.10
2019-03-11T18:51:10.449Z,97.20
2019-03-11T18:53:49.977Z,97.10
2019-03-11T18:56:38.140Z,96.90
2019-03-11T18:59:26.344Z,96.90
2019-03-11T19:02:14.510Z,96.60
2019-03-11T19:05:02.118Z,96.70
2019-03-11T19:07:49.646Z,96.50
2019-03-11T19:10:37.797Z,96.60
2019-03-11T19:13:26.062Z,96.30
2019-03-11T19:16:14.830Z,96.50
2019-03-11T19:19:02.485Z,96.20
2019-03-11T19:21:50.394Z,96.00
2019-03-11T19:24:38.054Z,96.00
2019-03-11T19:27:25.394Z,96.10
2019-03-11T19:30:15.598Z,95.70
2019-03-11T19:33:03.625Z,95.60
2019-03-11T19:35:51.766Z,95.60
2019-03-11T19:38:39.591Z,95.60
2019-03-11T19:41:27.695Z,95.50
2019-03-11T19:44:15.255Z,95.50
2019-03-11T19:47:03.248Z,95.60
2019-03-11T19:49:50.968Z,95.70
2019-03-11T19:52:38.778Z,95.80
2019-03-11T19:55:26.809Z,95.80
2019-03-11T19:58:14.922Z,95.70
2019-03-11T20:01:02.676Z,95.90
2019-03-11T20:03:50.699Z,96.00
2019-03-11T20:06:38.752Z,95.90
2019-03-11T20:09:26.640Z,95.90
2019-03-11T20:12:14.461Z,95.70
2019-03-11T20:15:01.920Z,95.80
2019-03-11T20:17:49.874Z,95.80
2019-03-11T20:20:37.752Z,95.60
2019-03-11T20:23:25.408Z,95.80
2019-03-11T20:26:13.389Z,95.80
2019-03-11T20:29:00.916Z,95.90
2019-03-11T20:31:48.379Z,95.80
2019-03-11T20:34:36.379Z,95.90
2019-03-11T20:37:24.342Z,95.80
2019-03-11T20:40:12.891Z,96.00
2019-03-11T20:43:00.695Z,96.00
2019-03-11T20:45:48.669Z,96.00
2019-03-11T20:48:36.695Z,96.00
2019-03-11T20:51:24.441Z,96.00
2019-03-11T20:54:12.126Z,95.90
2019-03-11T20:57:01.193Z,95.90
2019-03-11T20:59:49.022Z,95.80
2019-03-11T21:02:37.375Z,95.80
2019-03-11T21:05:26.730Z,95.80
2019-03-11T21:08:14.758Z,95.60
2019-03-11T21:11:02.191Z,95.40
2019-03-11T21:13:49.485Z,95.10
2019-03-11T21:16:37.585Z,95.20
2019-03-11T21:19:25.641Z,95.10
2019-03-11T21:22:13.387Z,95.00
2019-03-11T21:25:01.245Z,94.70
2019-03-11T21:27:49.653Z,94.70
2019-03-11T21:30:37.515Z,94.40
2019-03-11T21:33:25.633Z,94.30
2019-03-11T21:36:13.615Z,94.30
2019-03-11T21:39:01.332Z,94.30
2019-03-11T21:41:49.338Z,94.40
2019-03-11T21:44:37.286Z,94.40
2019-03-11T21:47:25.009Z,94.20
2019-03-11T21:50:17.415Z,94.40
2019-03-11T21:53:05.232Z,94.50
2019-03-11T21:55:53.269Z,94.60
2019-03-11T21:58:41.159Z,94.50
2019-03-11T22:01:28.880Z,94.60
2019-03-11T22:04:17.062Z,94.60
2019-03-11T22:07:04.804Z,94.50
2019-03-11T22:09:52.578Z,94.50
2019-03-11T22:12:40.211Z,94.70
2019-03-11T22:15:27.793Z,94.40
2019-03-11T22:18:15.708Z,94.40
2019-03-11T22:21:03.625Z,94.40
2019-03-11T22:23:51.662Z,94.20
2019-03-11T22:26:39.273Z,94.30
2019-03-11T22:29:27.017Z,94.00
2019-03-11T22:32:14.866Z,94.00
2019-03-11T22:35:12.027Z,94.00
2019-03-11T22:37:51.811Z,94.00
2019-03-11T22:40:39.635Z,94.00
2019-03-11T22:43:26.992Z,93.80
2019-03-11T22:46:14.675Z,94.00
2019-03-11T22:49:02.316Z,94.10
2019-03-11T22:51:49.905Z,93.70
2019-03-11T22:54:37.711Z,93.60
2019-03-11T22:57:25.561Z,93.40
2019-03-11T23:00:21.939Z,93.40
2019-03-11T23:03:10.046Z,93.30
2019-03-11T23:05:58.688Z,93.20
2019-03-11T23:08:46.213Z,93.20
2019-03-11T23:11:33.797Z,93.30
2019-03-11T23:14:21.677Z,93.10
2019-03-11T23:17:09.514Z,93.30
2019-03-11T23:19:56.873Z,93.30
2019-03-11T23:22:44.571Z,93.50
2019-03-11T23:25:32.289Z,93.40
2019-03-11T23:28:19.565Z,93.50
2019-03-11T23:31:06.876Z,93.30
2019-03-11T23:33:54.745Z,93.50
2019-03-11T23:36:42.339Z,93.50
2019-03-11T23:39:30.174Z,93.10
2019-03-11T23:42:17.930Z,92.70
2019-03-11T23:45:05.951Z,92.80
2019-03-11T23:47:53.754Z,92.80
2019-03-11T23:50:41.372Z,93.10
2019-03-11T23:53:29.240Z,92.80
2019-03-11T23:56:17.561Z,93.00
2019-03-11T23:59:05.084Z,93.10
